sensor_id;sensor_type;location;lat;lon;timestamp;temperature;humidity
58413;DHT22;44209;52.952;6.790;2024-01-30T00:01:52;5.20;99.90
58413;DHT22;44209;52.952;6.790;2024-01-30T00:04:18;5.20;99.90
58413;DHT22;44209;52.952;6.790;2024-01-30T00:06:44;5.20;99.90
58413;DHT22;44209;52.952;6.790;2024-01-30T00:09:10;5.20;99.90
58413;DHT22;44209;52.952;6.790;2024-01-30T00:11:36;5.20;99.90
58413;DHT22;44209;52.952;6.790;2024-01-30T00:14:03;5.10;99.90
58413;DHT22;44209;52.952;6.790;2024-01-30T00:16:29;5.10;99.90
58413;DHT22;44209;52.952;6.790;2024-01-30T00:18:55;5.00;99.90
58413;DHT22;44209;52.952;6.790;2024-01-30T00:21:21;4.90;99.90
58413;DHT22;44209;52.952;6.790;2024-01-30T00:23:47;4.90;99.90
58413;DHT22;44209;52.952;6.790;2024-01-30T00:26:13;4.90;99.90
58413;DHT22;44209;52.952;6.790;2024-01-30T00:28:43;4.80;99.90
58413;DHT22;44209;52.952;6.790;2024-01-30T00:31:09;4.90;99.90
58413;DHT22;44209;52.952;6.790;2024-01-30T00:33:39;5.00;99.90
58413;DHT22;44209;52.952;6.790;2024-01-30T00:36:08;5.00;99.90
58413;DHT22;44209;52.952;6.790;2024-01-30T00:38:34;4.90;99.90
58413;DHT22;44209;52.952;6.790;2024-01-30T00:41:00;4.90;99.90
58413;DHT22;44209;52.952;6.790;2024-01-30T00:43:27;5.00;99.90
58413;DHT22;44209;52.952;6.790;2024-01-30T00:45:53;5.00;99.90
58413;DHT22;44209;52.952;6.790;2024-01-30T00:48:20;5.10;99.90
58413;DHT22;44209;52.952;6.790;2024-01-30T00:50:45;5.10;99.90
58413;DHT22;44209;52.952;6.790;2024-01-30T00:53:11;5.10;99.90
58413;DHT22;44209;52.952;6.790;2024-01-30T00:55:37;5.10;99.90
58413;DHT22;44209;52.952;6.790;2024-01-30T00:58:03;5.20;99.90
58413;DHT22;44209;52.952;6.790;2024-01-30T01:00:29;5.30;99.90
58413;DHT22;44209;52.952;6.790;2024-01-30T01:02:55;5.20;99.90
58413;DHT22;44209;52.952;6.790;2024-01-30T01:05:21;5.20;99.90
58413;DHT22;44209;52.952;6.790;2024-01-30T01:07:47;5.10;99.90
58413;DHT22;44209;52.952;6.790;2024-01-30T01:10:16;5.10;99.90
58413;DHT22;44209;52.952;6.790;2024-01-30T01:12:42;5.00;99.90
58413;DHT22;44209;52.952;6.790;2024-01-30T01:15:08;5.00;99.90
58413;DHT22;44209;52.952;6.790;2024-01-30T01:17:37;4.90;99.90
58413;DHT22;44209;52.952;6.790;2024-01-30T01:20:04;4.90;99.90
58413;DHT22;44209;52.952;6.790;2024-01-30T01:22:33;4.80;99.90
58413;DHT22;44209;52.952;6.790;2024-01-30T01:25:00;4.80;99.90
58413;DHT22;44209;52.952;6.790;2024-01-30T01:27:25;4.80;99.90
58413;DHT22;44209;52.952;6.790;2024-01-30T01:29:52;4.90;99.90
58413;DHT22;44209;52.952;6.790;2024-01-30T01:32:18;4.90;99.90
58413;DHT22;44209;52.952;6.790;2024-01-30T01:34:44;4.90;99.90
58413;DHT22;44209;52.952;6.790;2024-01-30T01:37:09;4.90;99.90
58413;DHT22;44209;52.952;6.790;2024-01-30T01:39:35;4.90;99.90
58413;DHT22;44209;52.952;6.790;2024-01-30T01:42:01;4.90;99.90
58413;DHT22;44209;52.952;6.790;2024-01-30T01:44:27;4.80;99.90
58413;DHT22;44209;52.952;6.790;2024-01-30T01:46:54;4.80;99.90
58413;DHT22;44209;52.952;6.790;2024-01-30T01:49:20;4.80;99.90
58413;DHT22;44209;52.952;6.790;2024-01-30T01:51:47;4.90;99.90
58413;DHT22;44209;52.952;6.790;2024-01-30T01:54:14;4.90;99.90
58413;DHT22;44209;52.952;6.790;2024-01-30T01:56:42;4.90;99.90
58413;DHT22;44209;52.952;6.790;2024-01-30T01:59:08;5.00;99.90
58413;DHT22;44209;52.952;6.790;2024-01-30T02:01:36;5.10;99.90
58413;DHT22;44209;52.952;6.790;2024-01-30T02:04:02;5.20;99.90
58413;DHT22;44209;52.952;6.790;2024-01-30T02:06:28;5.20;99.90
58413;DHT22;44209;52.952;6.790;2024-01-30T02:08:56;5.30;99.90
58413;DHT22;44209;52.952;6.790;2024-01-30T02:11:22;5.40;99.90
58413;DHT22;44209;52.952;6.790;2024-01-30T02:13:49;5.40;99.90
58413;DHT22;44209;52.952;6.790;2024-01-30T02:16:15;5.50;99.90
58413;DHT22;44209;52.952;6.790;2024-01-30T02:18:42;5.50;99.90
58413;DHT22;44209;52.952;6.790;2024-01-30T02:21:11;5.60;99.90
58413;DHT22;44209;52.952;6.790;2024-01-30T02:23:38;5.70;99.90
58413;DHT22;44209;52.952;6.790;2024-01-30T02:26:05;5.70;99.90
58413;DHT22;44209;52.952;6.790;2024-01-30T02:28:30;5.80;99.90
58413;DHT22;44209;52.952;6.790;2024-01-30T02:30:56;5.80;99.90
58413;DHT22;44209;52.952;6.790;2024-01-30T02:33:22;5.80;99.90
58413;DHT22;44209;52.952;6.790;2024-01-30T02:35:48;5.80;99.90
58413;DHT22;44209;52.952;6.790;2024-01-30T02:38:15;5.80;99.90
58413;DHT22;44209;52.952;6.790;2024-01-30T02:40:40;5.80;99.90
58413;DHT22;44209;52.952;6.790;2024-01-30T02:43:06;5.80;99.90
58413;DHT22;44209;52.952;6.790;2024-01-30T02:45:32;5.80;99.90
58413;DHT22;44209;52.952;6.790;2024-01-30T02:47:58;5.80;99.90
58413;DHT22;44209;52.952;6.790;2024-01-30T02:50:23;5.70;99.90
58413;DHT22;44209;52.952;6.790;2024-01-30T02:52:49;5.70;99.90
58413;DHT22;44209;52.952;6.790;2024-01-30T02:55:15;5.70;99.90
58413;DHT22;44209;52.952;6.790;2024-01-30T02:57:43;5.70;99.90
58413;DHT22;44209;52.952;6.790;2024-01-30T03:00:09;5.70;99.90
58413;DHT22;44209;52.952;6.790;2024-01-30T03:02:35;5.70;99.90
58413;DHT22;44209;52.952;6.790;2024-01-30T03:05:01;5.70;99.90
58413;DHT22;44209;52.952;6.790;2024-01-30T03:07:26;5.70;99.90
58413;DHT22;44209;52.952;6.790;2024-01-30T03:09:52;5.80;99.90
58413;DHT22;44209;52.952;6.790;2024-01-30T03:12:18;5.80;99.90
58413;DHT22;44209;52.952;6.790;2024-01-30T03:14:44;5.90;99.90
58413;DHT22;44209;52.952;6.790;2024-01-30T03:17:09;6.00;99.90
58413;DHT22;44209;52.952;6.790;2024-01-30T03:19:35;6.00;99.90
58413;DHT22;44209;52.952;6.790;2024-01-30T03:22:01;6.10;99.90
58413;DHT22;44209;52.952;6.790;2024-01-30T03:24:26;6.10;99.90
58413;DHT22;44209;52.952;6.790;2024-01-30T03:26:52;6.10;99.90
58413;DHT22;44209;52.952;6.790;2024-01-30T03:29:18;6.10;99.90
58413;DHT22;44209;52.952;6.790;2024-01-30T03:31:44;6.10;99.90
58413;DHT22;44209;52.952;6.790;2024-01-30T03:34:09;6.10;99.90
58413;DHT22;44209;52.952;6.790;2024-01-30T03:36:35;6.20;99.90
58413;DHT22;44209;52.952;6.790;2024-01-30T03:39:01;6.20;99.90
58413;DHT22;44209;52.952;6.790;2024-01-30T03:41:27;6.20;99.90
58413;DHT22;44209;52.952;6.790;2024-01-30T03:43:53;6.20;99.90
58413;DHT22;44209;52.952;6.790;2024-01-30T03:46:18;6.20;99.90
58413;DHT22;44209;52.952;6.790;2024-01-30T03:48:45;6.20;99.90
58413;DHT22;44209;52.952;6.790;2024-01-30T03:51:11;6.20;99.90
58413;DHT22;44209;52.952;6.790;2024-01-30T03:53:40;6.20;99.90
58413;DHT22;44209;52.952;6.790;2024-01-30T03:56:07;6.30;99.90
58413;DHT22;44209;52.952;6.790;2024-01-30T03:58:33;6.30;99.90
58413;DHT22;44209;52.952;6.790;2024-01-30T04:00:58;6.40;99.90
58413;DHT22;44209;52.952;6.790;2024-01-30T04:03:24;6.40;99.90
58413;DHT22;44209;52.952;6.790;2024-01-30T04:05:51;6.40;99.90
58413;DHT22;44209;52.952;6.790;2024-01-30T04:08:17;6.50;99.90
58413;DHT22;44209;52.952;6.790;2024-01-30T04:10:43;6.50;99.90
58413;DHT22;44209;52.952;6.790;2024-01-30T04:13:09;6.60;99.90
58413;DHT22;44209;52.952;6.790;2024-01-30T04:15:34;6.60;99.90
58413;DHT22;44209;52.952;6.790;2024-01-30T04:18:00;6.70;99.90
58413;DHT22;44209;52.952;6.790;2024-01-30T04:20:26;6.80;99.90
58413;DHT22;44209;52.952;6.790;2024-01-30T04:22:52;6.70;99.90
58413;DHT22;44209;52.952;6.790;2024-01-30T04:25:18;6.80;99.90
58413;DHT22;44209;52.952;6.790;2024-01-30T04:27:43;6.80;99.90
58413;DHT22;44209;52.952;6.790;2024-01-30T04:30:09;6.80;99.90
58413;DHT22;44209;52.952;6.790;2024-01-30T04:32:36;6.90;99.90
58413;DHT22;44209;52.952;6.790;2024-01-30T04:35:02;6.90;99.90
58413;DHT22;44209;52.952;6.790;2024-01-30T04:37:29;6.90;99.90
58413;DHT22;44209;52.952;6.790;2024-01-30T04:39:55;6.90;99.90
58413;DHT22;44209;52.952;6.790;2024-01-30T04:42:21;7.00;99.90
58413;DHT22;44209;52.952;6.790;2024-01-30T04:44:46;7.00;99.90
58413;DHT22;44209;52.952;6.790;2024-01-30T04:47:12;7.00;99.90
58413;DHT22;44209;52.952;6.790;2024-01-30T04:49:39;7.00;99.90
58413;DHT22;44209;52.952;6.790;2024-01-30T04:52:08;7.00;99.90
58413;DHT22;44209;52.952;6.790;2024-01-30T04:54:34;7.00;99.90
58413;DHT22;44209;52.952;6.790;2024-01-30T04:57:00;7.10;99.90
58413;DHT22;44209;52.952;6.790;2024-01-30T04:59:26;7.10;99.90
58413;DHT22;44209;52.952;6.790;2024-01-30T05:01:52;7.10;99.90
58413;DHT22;44209;52.952;6.790;2024-01-30T05:04:18;7.10;99.90
58413;DHT22;44209;52.952;6.790;2024-01-30T05:06:44;7.10;99.90
58413;DHT22;44209;52.952;6.790;2024-01-30T05:09:10;7.10;99.90
58413;DHT22;44209;52.952;6.790;2024-01-30T05:11:39;7.10;99.90
58413;DHT22;44209;52.952;6.790;2024-01-30T05:14:06;7.10;99.90
58413;DHT22;44209;52.952;6.790;2024-01-30T05:16:32;7.10;99.90
58413;DHT22;44209;52.952;6.790;2024-01-30T05:18:58;7.00;99.90
58413;DHT22;44209;52.952;6.790;2024-01-30T05:21:23;7.10;99.90
58413;DHT22;44209;52.952;6.790;2024-01-30T05:23:49;7.00;99.90
58413;DHT22;44209;52.952;6.790;2024-01-30T05:26:15;7.10;99.90
58413;DHT22;44209;52.952;6.790;2024-01-30T05:28:41;7.10;99.90
58413;DHT22;44209;52.952;6.790;2024-01-30T05:31:06;7.10;99.90
58413;DHT22;44209;52.952;6.790;2024-01-30T05:33:32;7.10;99.90
58413;DHT22;44209;52.952;6.790;2024-01-30T05:35:58;7.20;99.90
58413;DHT22;44209;52.952;6.790;2024-01-30T05:38:23;7.20;99.90
58413;DHT22;44209;52.952;6.790;2024-01-30T05:40:49;7.20;99.90
58413;DHT22;44209;52.952;6.790;2024-01-30T05:43:15;7.20;99.90
58413;DHT22;44209;52.952;6.790;2024-01-30T05:45:41;7.20;99.90
58413;DHT22;44209;52.952;6.790;2024-01-30T05:48:06;7.30;99.90
58413;DHT22;44209;52.952;6.790;2024-01-30T05:50:32;7.20;99.90
58413;DHT22;44209;52.952;6.790;2024-01-30T05:52:58;7.30;99.90
58413;DHT22;44209;52.952;6.790;2024-01-30T05:55:23;7.30;99.90
58413;DHT22;44209;52.952;6.790;2024-01-30T05:57:49;7.30;99.90
58413;DHT22;44209;52.952;6.790;2024-01-30T06:00:16;7.30;99.90
58413;DHT22;44209;52.952;6.790;2024-01-30T06:02:42;7.40;99.90
58413;DHT22;44209;52.952;6.790;2024-01-30T06:05:08;7.30;99.90
58413;DHT22;44209;52.952;6.790;2024-01-30T06:07:34;7.40;99.90
58413;DHT22;44209;52.952;6.790;2024-01-30T06:10:01;7.40;99.90
58413;DHT22;44209;52.952;6.790;2024-01-30T06:12:27;7.40;99.90
58413;DHT22;44209;52.952;6.790;2024-01-30T06:14:54;7.40;99.90
58413;DHT22;44209;52.952;6.790;2024-01-30T06:17:23;7.40;99.90
58413;DHT22;44209;52.952;6.790;2024-01-30T06:19:49;7.30;99.90
58413;DHT22;44209;52.952;6.790;2024-01-30T06:22:17;7.40;99.90
58413;DHT22;44209;52.952;6.790;2024-01-30T06:24:43;7.40;99.90
58413;DHT22;44209;52.952;6.790;2024-01-30T06:27:10;7.40;99.90
58413;DHT22;44209;52.952;6.790;2024-01-30T06:29:36;7.40;99.90
58413;DHT22;44209;52.952;6.790;2024-01-30T06:32:02;7.40;99.90
58413;DHT22;44209;52.952;6.790;2024-01-30T06:34:28;7.50;99.90
58413;DHT22;44209;52.952;6.790;2024-01-30T06:36:54;7.50;99.90
58413;DHT22;44209;52.952;6.790;2024-01-30T06:39:19;7.50;99.90
58413;DHT22;44209;52.952;6.790;2024-01-30T06:41:45;7.50;99.90
58413;DHT22;44209;52.952;6.790;2024-01-30T06:44:12;7.50;99.90
58413;DHT22;44209;52.952;6.790;2024-01-30T06:46:38;7.50;99.90
58413;DHT22;44209;52.952;6.790;2024-01-30T06:49:04;7.50;99.90
58413;DHT22;44209;52.952;6.790;2024-01-30T06:51:30;7.50;99.90
58413;DHT22;44209;52.952;6.790;2024-01-30T06:53:56;7.50;99.90
58413;DHT22;44209;52.952;6.790;2024-01-30T06:56:22;7.50;99.90
58413;DHT22;44209;52.952;6.790;2024-01-30T06:58:48;7.50;99.90
58413;DHT22;44209;52.952;6.790;2024-01-30T07:01:15;7.40;99.90
58413;DHT22;44209;52.952;6.790;2024-01-30T07:03:40;7.50;99.90
58413;DHT22;44209;52.952;6.790;2024-01-30T07:06:06;7.50;99.90
58413;DHT22;44209;52.952;6.790;2024-01-30T07:08:32;7.50;99.90
58413;DHT22;44209;52.952;6.790;2024-01-30T07:10:57;7.50;99.90
58413;DHT22;44209;52.952;6.790;2024-01-30T07:13:23;7.40;99.90
58413;DHT22;44209;52.952;6.790;2024-01-30T07:15:50;7.40;99.90
58413;DHT22;44209;52.952;6.790;2024-01-30T07:18:16;7.40;99.90
58413;DHT22;44209;52.952;6.790;2024-01-30T07:20:41;7.40;99.90
58413;DHT22;44209;52.952;6.790;2024-01-30T07:23:12;7.40;99.90
58413;DHT22;44209;52.952;6.790;2024-01-30T07:25:45;7.40;99.90
58413;DHT22;44209;52.952;6.790;2024-01-30T07:28:11;7.40;99.90
58413;DHT22;44209;52.952;6.790;2024-01-30T07:30:42;7.50;99.90
58413;DHT22;44209;52.952;6.790;2024-01-30T07:33:08;7.50;99.90
58413;DHT22;44209;52.952;6.790;2024-01-30T07:35:34;7.50;99.90
58413;DHT22;44209;52.952;6.790;2024-01-30T07:38:01;7.50;99.90
58413;DHT22;44209;52.952;6.790;2024-01-30T07:40:27;7.50;99.90
58413;DHT22;44209;52.952;6.790;2024-01-30T07:42:54;7.60;99.90
58413;DHT22;44209;52.952;6.790;2024-01-30T07:45:20;7.60;99.90
58413;DHT22;44209;52.952;6.790;2024-01-30T07:47:50;7.60;99.90
58413;DHT22;44209;52.952;6.790;2024-01-30T07:50:16;7.60;99.90
58413;DHT22;44209;52.952;6.790;2024-01-30T07:52:43;7.60;99.90
58413;DHT22;44209;52.952;6.790;2024-01-30T07:55:09;7.60;99.90
58413;DHT22;44209;52.952;6.790;2024-01-30T07:57:38;7.60;99.90
58413;DHT22;44209;52.952;6.790;2024-01-30T08:00:05;7.60;99.90
58413;DHT22;44209;52.952;6.790;2024-01-30T08:02:32;7.60;99.90
58413;DHT22;44209;52.952;6.790;2024-01-30T08:04:58;7.60;99.90
58413;DHT22;44209;52.952;6.790;2024-01-30T08:07:24;7.60;99.90
58413;DHT22;44209;52.952;6.790;2024-01-30T08:09:50;7.60;99.90
58413;DHT22;44209;52.952;6.790;2024-01-30T08:12:15;7.60;99.90
58413;DHT22;44209;52.952;6.790;2024-01-30T08:14:42;7.60;99.90
58413;DHT22;44209;52.952;6.790;2024-01-30T08:17:07;7.60;99.90
58413;DHT22;44209;52.952;6.790;2024-01-30T08:19:33;7.70;99.90
58413;DHT22;44209;52.952;6.790;2024-01-30T08:21:59;7.70;99.90
58413;DHT22;44209;52.952;6.790;2024-01-30T08:24:25;7.70;99.90
58413;DHT22;44209;52.952;6.790;2024-01-30T08:26:50;7.70;99.90
58413;DHT22;44209;52.952;6.790;2024-01-30T08:29:16;7.80;99.90
58413;DHT22;44209;52.952;6.790;2024-01-30T08:31:42;7.80;99.90
58413;DHT22;44209;52.952;6.790;2024-01-30T08:34:08;7.80;99.90
58413;DHT22;44209;52.952;6.790;2024-01-30T08:36:33;7.80;99.90
58413;DHT22;44209;52.952;6.790;2024-01-30T08:38:59;7.80;99.90
58413;DHT22;44209;52.952;6.790;2024-01-30T08:41:25;7.90;99.90
58413;DHT22;44209;52.952;6.790;2024-01-30T08:43:51;7.90;99.90
58413;DHT22;44209;52.952;6.790;2024-01-30T08:46:18;7.90;99.90
58413;DHT22;44209;52.952;6.790;2024-01-30T08:48:43;7.90;99.90
58413;DHT22;44209;52.952;6.790;2024-01-30T08:51:09;7.90;99.90
58413;DHT22;44209;52.952;6.790;2024-01-30T08:53:36;8.00;99.90
58413;DHT22;44209;52.952;6.790;2024-01-30T08:56:02;8.00;99.90
58413;DHT22;44209;52.952;6.790;2024-01-30T08:58:28;8.00;99.90
58413;DHT22;44209;52.952;6.790;2024-01-30T09:00:54;8.00;99.90
58413;DHT22;44209;52.952;6.790;2024-01-30T09:03:20;8.10;99.90
58413;DHT22;44209;52.952;6.790;2024-01-30T09:05:45;8.20;99.90
58413;DHT22;44209;52.952;6.790;2024-01-30T09:08:11;8.20;99.90
58413;DHT22;44209;52.952;6.790;2024-01-30T09:10:37;8.20;99.90
58413;DHT22;44209;52.952;6.790;2024-01-30T09:13:03;8.30;99.90
58413;DHT22;44209;52.952;6.790;2024-01-30T09:15:29;8.30;99.90
58413;DHT22;44209;52.952;6.790;2024-01-30T09:17:54;8.30;99.90
58413;DHT22;44209;52.952;6.790;2024-01-30T09:20:20;8.30;99.90
58413;DHT22;44209;52.952;6.790;2024-01-30T09:22:47;8.40;99.90
58413;DHT22;44209;52.952;6.790;2024-01-30T09:25:15;8.40;99.90
58413;DHT22;44209;52.952;6.790;2024-01-30T09:27:41;8.40;99.90
58413;DHT22;44209;52.952;6.790;2024-01-30T09:30:07;8.40;99.90
58413;DHT22;44209;52.952;6.790;2024-01-30T09:32:33;8.40;99.90
58413;DHT22;44209;52.952;6.790;2024-01-30T09:34:59;8.50;99.90
58413;DHT22;44209;52.952;6.790;2024-01-30T09:37:24;8.50;99.90
58413;DHT22;44209;52.952;6.790;2024-01-30T09:39:50;8.50;99.90
58413;DHT22;44209;52.952;6.790;2024-01-30T09:42:33;8.50;99.90
58413;DHT22;44209;52.952;6.790;2024-01-30T09:45:02;8.60;99.90
58413;DHT22;44209;52.952;6.790;2024-01-30T09:47:31;8.60;99.90
58413;DHT22;44209;52.952;6.790;2024-01-30T09:49:58;8.60;99.90
58413;DHT22;44209;52.952;6.790;2024-01-30T09:52:24;8.70;99.90
58413;DHT22;44209;52.952;6.790;2024-01-30T09:54:51;8.70;99.90
58413;DHT22;44209;52.952;6.790;2024-01-30T09:57:17;8.70;99.90
58413;DHT22;44209;52.952;6.790;2024-01-30T09:59:43;8.80;99.90
58413;DHT22;44209;52.952;6.790;2024-01-30T10:02:10;8.80;99.90
58413;DHT22;44209;52.952;6.790;2024-01-30T10:04:35;8.90;99.90
58413;DHT22;44209;52.952;6.790;2024-01-30T10:07:04;8.90;99.90
58413;DHT22;44209;52.952;6.790;2024-01-30T10:09:32;9.00;99.90
58413;DHT22;44209;52.952;6.790;2024-01-30T10:11:59;9.10;99.90
58413;DHT22;44209;52.952;6.790;2024-01-30T10:14:24;9.30;99.90
58413;DHT22;44209;52.952;6.790;2024-01-30T10:16:51;9.30;99.90
58413;DHT22;44209;52.952;6.790;2024-01-30T10:19:16;9.40;99.90
58413;DHT22;44209;52.952;6.790;2024-01-30T10:21:42;9.40;99.90
58413;DHT22;44209;52.952;6.790;2024-01-30T10:24:08;9.40;99.90
58413;DHT22;44209;52.952;6.790;2024-01-30T10:26:33;9.50;99.90
58413;DHT22;44209;52.952;6.790;2024-01-30T10:28:59;9.50;99.90
58413;DHT22;44209;52.952;6.790;2024-01-30T10:31:25;9.60;99.90
58413;DHT22;44209;52.952;6.790;2024-01-30T10:33:51;9.60;99.90
58413;DHT22;44209;52.952;6.790;2024-01-30T10:36:17;9.60;99.90
58413;DHT22;44209;52.952;6.790;2024-01-30T10:38:44;9.70;99.90
58413;DHT22;44209;52.952;6.790;2024-01-30T10:41:13;9.80;99.90
58413;DHT22;44209;52.952;6.790;2024-01-30T10:43:41;9.80;99.90
58413;DHT22;44209;52.952;6.790;2024-01-30T10:46:20;9.90;99.90
58413;DHT22;44209;52.952;6.790;2024-01-30T10:48:54;9.90;99.90
58413;DHT22;44209;52.952;6.790;2024-01-30T10:51:22;10.00;99.90
58413;DHT22;44209;52.952;6.790;2024-01-30T10:53:49;10.00;99.90
58413;DHT22;44209;52.952;6.790;2024-01-30T10:56:16;10.00;99.90
58413;DHT22;44209;52.952;6.790;2024-01-30T10:58:43;10.00;99.90
58413;DHT22;44209;52.952;6.790;2024-01-30T11:01:09;10.00;99.90
58413;DHT22;44209;52.952;6.790;2024-01-30T11:03:35;10.00;99.90
58413;DHT22;44209;52.952;6.790;2024-01-30T11:06:02;10.00;99.90
58413;DHT22;44209;52.952;6.790;2024-01-30T11:08:31;10.00;99.90
58413;DHT22;44209;52.952;6.790;2024-01-30T11:10:58;10.00;99.90
58413;DHT22;44209;52.952;6.790;2024-01-30T11:13:31;10.00;99.90
58413;DHT22;44209;52.952;6.790;2024-01-30T11:16:04;10.00;99.90
58413;DHT22;44209;52.952;6.790;2024-01-30T11:18:31;10.10;99.90
58413;DHT22;44209;52.952;6.790;2024-01-30T11:20:58;10.10;99.90
58413;DHT22;44209;52.952;6.790;2024-01-30T11:23:25;10.20;99.90
58413;DHT22;44209;52.952;6.790;2024-01-30T11:25:53;10.30;99.90
58413;DHT22;44209;52.952;6.790;2024-01-30T11:28:18;10.30;99.90
58413;DHT22;44209;52.952;6.790;2024-01-30T11:30:46;10.20;99.90
58413;DHT22;44209;52.952;6.790;2024-01-30T11:33:14;10.20;99.90
58413;DHT22;44209;52.952;6.790;2024-01-30T11:35:44;10.30;99.90
58413;DHT22;44209;52.952;6.790;2024-01-30T11:38:11;10.30;99.90
58413;DHT22;44209;52.952;6.790;2024-01-30T11:40:38;10.20;99.90
58413;DHT22;44209;52.952;6.790;2024-01-30T11:43:06;10.20;99.90
58413;DHT22;44209;52.952;6.790;2024-01-30T11:45:33;10.20;99.90
58413;DHT22;44209;52.952;6.790;2024-01-30T11:47:59;10.20;99.90
58413;DHT22;44209;52.952;6.790;2024-01-30T11:50:27;10.20;99.90
58413;DHT22;44209;52.952;6.790;2024-01-30T11:52:54;10.20;99.90
58413;DHT22;44209;52.952;6.790;2024-01-30T11:55:20;10.20;99.90
58413;DHT22;44209;52.952;6.790;2024-01-30T11:57:46;10.30;99.90
58413;DHT22;44209;52.952;6.790;2024-01-30T12:00:15;10.30;99.90
58413;DHT22;44209;52.952;6.790;2024-01-30T12:02:42;10.40;99.90
58413;DHT22;44209;52.952;6.790;2024-01-30T12:05:08;10.40;99.90
58413;DHT22;44209;52.952;6.790;2024-01-30T12:07:35;10.50;99.90
58413;DHT22;44209;52.952;6.790;2024-01-30T12:10:01;10.50;99.90
58413;DHT22;44209;52.952;6.790;2024-01-30T12:12:28;10.50;99.90
58413;DHT22;44209;52.952;6.790;2024-01-30T12:14:55;10.60;99.90
58413;DHT22;44209;52.952;6.790;2024-01-30T12:17:32;10.60;99.90
58413;DHT22;44209;52.952;6.790;2024-01-30T12:20:18;10.70;99.90
58413;DHT22;44209;52.952;6.790;2024-01-30T12:22:45;10.70;99.90
58413;DHT22;44209;52.952;6.790;2024-01-30T12:25:20;10.80;99.90
58413;DHT22;44209;52.952;6.790;2024-01-30T12:27:48;10.80;99.90
58413;DHT22;44209;52.952;6.790;2024-01-30T12:30:18;10.90;99.90
58413;DHT22;44209;52.952;6.790;2024-01-30T12:32:46;10.90;99.90
58413;DHT22;44209;52.952;6.790;2024-01-30T12:35:17;10.90;99.90
58413;DHT22;44209;52.952;6.790;2024-01-30T12:37:44;11.00;99.90
58413;DHT22;44209;52.952;6.790;2024-01-30T12:40:11;11.00;99.90
58413;DHT22;44209;52.952;6.790;2024-01-30T12:42:39;11.00;99.90
58413;DHT22;44209;52.952;6.790;2024-01-30T12:45:05;11.00;99.90
58413;DHT22;44209;52.952;6.790;2024-01-30T12:47:31;11.00;99.90
58413;DHT22;44209;52.952;6.790;2024-01-30T12:49:57;11.00;99.90
58413;DHT22;44209;52.952;6.790;2024-01-30T12:52:23;11.00;99.90
58413;DHT22;44209;52.952;6.790;2024-01-30T12:54:50;10.90;99.90
58413;DHT22;44209;52.952;6.790;2024-01-30T12:57:16;10.80;99.90
58413;DHT22;44209;52.952;6.790;2024-01-30T12:59:46;10.80;99.90
58413;DHT22;44209;52.952;6.790;2024-01-30T13:02:12;10.70;99.90
58413;DHT22;44209;52.952;6.790;2024-01-30T13:04:39;10.70;99.90
58413;DHT22;44209;52.952;6.790;2024-01-30T13:07:04;10.60;99.90
58413;DHT22;44209;52.952;6.790;2024-01-30T13:09:30;10.60;99.90
58413;DHT22;44209;52.952;6.790;2024-01-30T13:11:59;10.50;99.90
58413;DHT22;44209;52.952;6.790;2024-01-30T13:14:25;10.40;99.90
58413;DHT22;44209;52.952;6.790;2024-01-30T13:16:51;10.40;99.90
58413;DHT22;44209;52.952;6.790;2024-01-30T13:19:18;10.40;99.90
58413;DHT22;44209;52.952;6.790;2024-01-30T13:21:44;10.40;99.90
58413;DHT22;44209;52.952;6.790;2024-01-30T13:24:10;10.40;99.90
58413;DHT22;44209;52.952;6.790;2024-01-30T13:26:35;10.50;99.90
58413;DHT22;44209;52.952;6.790;2024-01-30T13:29:01;10.40;99.90
58413;DHT22;44209;52.952;6.790;2024-01-30T13:31:27;10.50;99.90
58413;DHT22;44209;52.952;6.790;2024-01-30T13:33:54;10.40;99.90
58413;DHT22;44209;52.952;6.790;2024-01-30T13:36:19;10.50;99.90
58413;DHT22;44209;52.952;6.790;2024-01-30T13:38:45;10.40;99.90
58413;DHT22;44209;52.952;6.790;2024-01-30T13:41:11;10.40;99.90
58413;DHT22;44209;52.952;6.790;2024-01-30T13:43:37;10.30;99.90
58413;DHT22;44209;52.952;6.790;2024-01-30T13:46:02;10.30;99.90
58413;DHT22;44209;52.952;6.790;2024-01-30T13:48:28;10.30;99.90
58413;DHT22;44209;52.952;6.790;2024-01-30T13:50:55;10.20;99.90
58413;DHT22;44209;52.952;6.790;2024-01-30T13:53:21;10.20;99.90
58413;DHT22;44209;52.952;6.790;2024-01-30T13:55:47;10.10;99.90
58413;DHT22;44209;52.952;6.790;2024-01-30T13:58:12;10.10;99.90
58413;DHT22;44209;52.952;6.790;2024-01-30T14:00:38;10.10;99.90
58413;DHT22;44209;52.952;6.790;2024-01-30T14:03:04;10.10;99.90
58413;DHT22;44209;52.952;6.790;2024-01-30T14:05:30;10.10;99.90
58413;DHT22;44209;52.952;6.790;2024-01-30T14:07:57;10.10;99.90
58413;DHT22;44209;52.952;6.790;2024-01-30T14:10:23;10.10;99.90
58413;DHT22;44209;52.952;6.790;2024-01-30T14:12:49;10.10;99.90
58413;DHT22;44209;52.952;6.790;2024-01-30T14:15:15;10.10;99.90
58413;DHT22;44209;52.952;6.790;2024-01-30T14:17:44;10.10;99.90
58413;DHT22;44209;52.952;6.790;2024-01-30T14:20:10;10.10;99.90
58413;DHT22;44209;52.952;6.790;2024-01-30T14:22:36;10.10;99.90
58413;DHT22;44209;52.952;6.790;2024-01-30T14:25:03;10.10;99.90
58413;DHT22;44209;52.952;6.790;2024-01-30T14:27:30;10.10;99.90
58413;DHT22;44209;52.952;6.790;2024-01-30T14:29:56;10.10;99.90
58413;DHT22;44209;52.952;6.790;2024-01-30T14:32:23;10.00;99.90
58413;DHT22;44209;52.952;6.790;2024-01-30T14:34:49;10.00;99.90
58413;DHT22;44209;52.952;6.790;2024-01-30T14:37:15;10.00;99.90
58413;DHT22;44209;52.952;6.790;2024-01-30T14:39:41;10.00;99.90
58413;DHT22;44209;52.952;6.790;2024-01-30T14:42:07;9.90;99.90
58413;DHT22;44209;52.952;6.790;2024-01-30T14:44:32;9.90;99.90
58413;DHT22;44209;52.952;6.790;2024-01-30T14:47:00;9.90;99.90
58413;DHT22;44209;52.952;6.790;2024-01-30T14:49:26;9.80;99.90
58413;DHT22;44209;52.952;6.790;2024-01-30T14:51:52;9.80;99.90
58413;DHT22;44209;52.952;6.790;2024-01-30T14:54:17;9.70;99.90
58413;DHT22;44209;52.952;6.790;2024-01-30T14:56:44;9.60;99.90
58413;DHT22;44209;52.952;6.790;2024-01-30T14:59:10;9.60;99.90
58413;DHT22;44209;52.952;6.790;2024-01-30T15:01:36;9.50;99.90
58413;DHT22;44209;52.952;6.790;2024-01-30T15:04:01;9.50;99.90
58413;DHT22;44209;52.952;6.790;2024-01-30T15:06:28;9.50;99.90
58413;DHT22;44209;52.952;6.790;2024-01-30T15:08:54;9.40;99.90
58413;DHT22;44209;52.952;6.790;2024-01-30T15:11:20;9.40;99.90
58413;DHT22;44209;52.952;6.790;2024-01-30T15:13:45;9.40;99.90
58413;DHT22;44209;52.952;6.790;2024-01-30T15:16:11;9.40;99.90
58413;DHT22;44209;52.952;6.790;2024-01-30T15:18:37;9.30;99.90
58413;DHT22;44209;52.952;6.790;2024-01-30T15:21:03;9.30;99.90
58413;DHT22;44209;52.952;6.790;2024-01-30T15:23:29;9.30;99.90
58413;DHT22;44209;52.952;6.790;2024-01-30T15:25:54;9.30;99.90
58413;DHT22;44209;52.952;6.790;2024-01-30T15:28:33;9.20;99.90
58413;DHT22;44209;52.952;6.790;2024-01-30T15:31:00;9.20;99.90
58413;DHT22;44209;52.952;6.790;2024-01-30T15:33:28;9.20;99.90
58413;DHT22;44209;52.952;6.790;2024-01-30T15:35:53;9.20;99.90
58413;DHT22;44209;52.952;6.790;2024-01-30T15:38:20;9.20;99.90